createdAt,value
2023-05-24T00:00:24.869Z,13.92
2023-05-24T00:02:52.332Z,13.93
2023-05-24T00:05:19.751Z,13.91
2023-05-24T00:07:46.807Z,13.90
2023-05-24T00:10:14.188Z,13.88
2023-05-24T00:12:41.234Z,13.88
2023-05-24T00:15:08.795Z,13.84
2023-05-24T00:17:41.190Z,13.82
2023-05-24T00:20:11.081Z,13.80
2023-05-24T00:22:39.385Z,13.77
2023-05-24T00:25:07.178Z,13.74
2023-05-24T00:27:34.522Z,13.71
2023-05-24T00:30:02.077Z,13.65
2023-05-24T00:32:29.127Z,13.63
2023-05-24T00:34:57.117Z,13.64
2023-05-24T00:37:24.513Z,13.62
2023-05-24T00:39:51.554Z,13.62
2023-05-24T00:42:18.626Z,13.63
2023-05-24T00:44:46.047Z,13.64
2023-05-24T00:47:13.882Z,13.64
2023-05-24T00:49:40.959Z,13.74
2023-05-24T00:52:09.004Z,13.76
2023-05-24T00:54:36.135Z,13.83
2023-05-24T00:57:03.695Z,13.85
2023-05-24T00:59:31.287Z,13.86
2023-05-24T01:01:58.689Z,13.87
2023-05-24T01:04:26.061Z,13.89
2023-05-24T01:07:17.144Z,13.87
2023-05-24T01:09:48.097Z,13.86
2023-05-24T01:12:49.769Z,13.88
2023-05-24T01:15:20.799Z,13.89
2023-05-24T01:18:01.872Z,13.85
2023-05-24T01:20:33.046Z,13.84
2023-05-24T01:23:03.321Z,13.82
2023-05-24T01:26:04.642Z,13.84
2023-05-24T01:28:34.247Z,13.81
2023-05-24T01:31:01.733Z,13.81
2023-05-24T01:33:31.172Z,13.77
2023-05-24T01:35:58.611Z,13.73
2023-05-24T01:38:25.754Z,13.73
2023-05-24T01:40:59.659Z,13.75
2023-05-24T01:43:40.970Z,13.77
2023-05-24T01:46:22.424Z,13.79
2023-05-24T01:48:56.959Z,13.82
2023-05-24T01:51:25.007Z,13.74
2023-05-24T01:53:52.583Z,13.69
2023-05-24T01:56:20.801Z,13.70
2023-05-24T01:58:52.161Z,13.68
2023-05-24T02:01:19.820Z,13.66
2023-05-24T02:03:47.604Z,13.65
2023-05-24T02:06:15.033Z,13.64
2023-05-24T02:08:42.165Z,13.64
2023-05-24T02:11:11.660Z,13.63
2023-05-24T02:13:38.845Z,13.57
2023-05-24T02:16:06.799Z,13.55
2023-05-24T02:18:34.906Z,13.53
2023-05-24T02:21:03.016Z,13.52
2023-05-24T02:23:30.392Z,13.55
2023-05-24T02:25:59.401Z,13.53
2023-05-24T02:28:26.649Z,13.57
2023-05-24T02:30:53.869Z,13.55
2023-05-24T02:33:21.453Z,13.54
2023-05-24T02:35:48.782Z,13.52
2023-05-24T02:38:16.013Z,13.54
2023-05-24T02:40:43.665Z,13.56
2023-05-24T02:43:11.185Z,13.57
2023-05-24T02:45:38.280Z,13.58
2023-05-24T02:48:05.837Z,13.60
2023-05-24T02:50:33.092Z,13.60
2023-05-24T02:53:00.754Z,13.58
2023-05-24T02:55:29.219Z,13.52
2023-05-24T02:57:56.465Z,13.55
2023-05-24T03:00:24.718Z,13.52
2023-05-24T03:02:57.784Z,13.47
2023-05-24T03:05:24.944Z,13.45
2023-05-24T03:07:52.478Z,13.46
2023-05-24T03:10:19.802Z,13.44
2023-05-24T03:12:47.172Z,13.47
2023-05-24T03:15:14.820Z,13.51
2023-05-24T03:17:42.037Z,13.61
2023-05-24T03:20:11.697Z,13.65
2023-05-24T03:22:39.233Z,13.73
2023-05-24T03:25:08.949Z,13.77
2023-05-24T03:27:36.606Z,13.78
2023-05-24T03:30:06.560Z,13.83
2023-05-24T03:32:35.108Z,13.87
2023-05-24T03:35:02.762Z,13.90
2023-05-24T03:37:30.397Z,13.95
2023-05-24T03:39:57.522Z,13.97
2023-05-24T03:42:25.488Z,14.00
2023-05-24T03:44:52.953Z,14.01
2023-05-24T03:47:20.050Z,14.05
2023-05-24T03:49:48.206Z,14.07
2023-05-24T03:52:15.745Z,14.11
2023-05-24T03:54:43.242Z,14.16
2023-05-24T03:57:11.078Z,14.20
2023-05-24T03:59:41.112Z,14.29
2023-05-24T04:02:08.601Z,14.36
2023-05-24T04:04:37.074Z,14.32
2023-05-24T04:07:04.450Z,14.36
2023-05-24T04:09:31.570Z,14.46
2023-05-24T04:11:59.015Z,14.46
2023-05-24T04:14:26.095Z,14.51
2023-05-24T04:16:53.818Z,14.63
2023-05-24T04:19:21.392Z,14.68
2023-05-24T04:21:49.516Z,14.75
2023-05-24T04:24:16.705Z,14.76
2023-05-24T04:26:44.830Z,14.83
2023-05-24T04:29:12.037Z,14.94
2023-05-24T04:31:43.355Z,14.93
2023-05-24T04:34:14.264Z,15.01
2023-05-24T04:36:41.534Z,15.03
2023-05-24T04:39:09.309Z,15.08
2023-05-24T04:41:37.280Z,15.19
2023-05-24T04:44:04.571Z,15.29
2023-05-24T04:46:31.763Z,15.37
2023-05-24T04:48:59.255Z,15.44
2023-05-24T04:51:26.299Z,15.49
2023-05-24T04:53:53.523Z,15.59
2023-05-24T04:56:20.920Z,15.76
2023-05-24T04:58:48.001Z,15.94
2023-05-24T05:01:15.352Z,15.90
2023-05-24T05:03:45.095Z,15.93
2023-05-24T05:06:12.420Z,15.95
2023-05-24T05:08:39.587Z,16.03
2023-05-24T05:11:07.051Z,15.87
2023-05-24T05:13:34.288Z,15.83
2023-05-24T05:16:02.284Z,15.95
2023-05-24T05:18:29.726Z,16.29
2023-05-24T05:20:57.306Z,16.16
2023-05-24T05:23:24.414Z,16.08
2023-05-24T05:25:51.808Z,16.08
2023-05-24T05:28:18.961Z,16.01
2023-05-24T05:30:46.324Z,16.07
2023-05-24T05:33:13.858Z,16.16
2023-05-24T05:35:41.377Z,16.16
2023-05-24T05:38:08.508Z,16.28
2023-05-24T05:40:36.098Z,16.44
2023-05-24T05:43:04.521Z,16.28
2023-05-24T05:45:31.698Z,16.14
2023-05-24T05:47:59.132Z,16.21
2023-05-24T05:50:26.337Z,16.24
2023-05-24T05:52:53.670Z,16.46
2023-05-24T05:55:21.198Z,16.49
2023-05-24T05:57:49.231Z,16.54
2023-05-24T06:00:16.892Z,16.54
2023-05-24T06:02:44.385Z,16.58
2023-05-24T06:05:12.510Z,16.79
2023-05-24T06:07:40.570Z,16.88
2023-05-24T06:10:08.147Z,16.83
2023-05-24T06:12:35.595Z,16.90
2023-05-24T06:15:02.938Z,16.92
2023-05-24T06:17:30.636Z,17.01
2023-05-24T06:19:58.058Z,16.93
2023-05-24T06:22:25.393Z,17.04
2023-05-24T06:24:52.833Z,17.10
2023-05-24T06:27:19.953Z,17.04
2023-05-24T06:29:47.182Z,17.03
2023-05-24T06:32:14.703Z,16.94
2023-05-24T06:34:44.417Z,17.10
2023-05-24T06:37:15.120Z,17.02
2023-05-24T06:39:43.219Z,17.16
2023-05-24T06:42:11.220Z,17.07
2023-05-24T06:44:38.332Z,17.08
2023-05-24T06:47:06.837Z,16.95
2023-05-24T06:49:35.182Z,17.02
2023-05-24T06:52:02.400Z,17.16
2023-05-24T06:54:29.808Z,17.29
2023-05-24T06:56:57.118Z,17.32
2023-05-24T06:59:24.253Z,17.27
2023-05-24T07:01:57.934Z,17.22
2023-05-24T07:04:26.943Z,17.07
2023-05-24T07:06:54.521Z,17.23
2023-05-24T07:09:21.594Z,17.36
2023-05-24T07:11:48.735Z,17.37
2023-05-24T07:14:17.172Z,17.45
2023-05-24T07:16:45.261Z,17.53
2023-05-24T07:19:13.730Z,17.62
2023-05-24T07:21:41.345Z,17.65
2023-05-24T07:24:08.695Z,17.95
2023-05-24T07:26:36.721Z,17.91
2023-05-24T07:29:04.432Z,17.86
2023-05-24T07:31:34.925Z,18.07
2023-05-24T07:34:02.183Z,18.16
2023-05-24T07:36:34.751Z,18.21
2023-05-24T07:39:05.994Z,18.35
2023-05-24T07:41:34.215Z,18.49
2023-05-24T07:44:02.541Z,18.74
2023-05-24T07:46:32.267Z,18.90
2023-05-24T07:49:04.935Z,18.96
2023-05-24T07:51:32.681Z,18.81
2023-05-24T07:54:00.400Z,18.71
2023-05-24T07:56:27.831Z,18.92
2023-05-24T07:58:59.645Z,19.03
2023-05-24T08:01:27.185Z,19.10
2023-05-24T08:03:54.962Z,19.12
2023-05-24T08:06:22.983Z,19.15
2023-05-24T08:08:50.523Z,19.36
2023-05-24T08:11:20.190Z,19.63
2023-05-24T08:13:48.200Z,19.54
2023-05-24T08:16:15.363Z,19.59
2023-05-24T08:18:42.755Z,19.79
2023-05-24T08:21:10.033Z,19.70
2023-05-24T08:23:37.167Z,19.67
2023-05-24T08:26:06.252Z,19.63
2023-05-24T08:28:33.622Z,19.93
2023-05-24T08:31:01.267Z,19.83
2023-05-24T08:33:29.854Z,19.97
2023-05-24T08:35:57.262Z,20.23
2023-05-24T08:38:24.393Z,20.14
2023-05-24T08:40:51.732Z,20.11
2023-05-24T08:43:19.695Z,20.11
2023-05-24T08:45:47.125Z,20.18
2023-05-24T08:48:15.386Z,19.76
2023-05-24T08:50:43.918Z,20.12
2023-05-24T08:53:11.633Z,19.81
2023-05-24T08:55:39.382Z,20.17
2023-05-24T08:58:06.811Z,20.00
2023-05-24T09:00:33.924Z,19.78
2023-05-24T09:03:02.007Z,19.93
2023-05-24T09:05:30.248Z,19.64
2023-05-24T09:08:01.137Z,19.86
2023-05-24T09:10:35.427Z,19.93
2023-05-24T09:13:08.994Z,20.58
2023-05-24T09:15:36.609Z,20.57
2023-05-24T09:18:03.894Z,20.12
2023-05-24T09:20:31.180Z,20.01
2023-05-24T09:22:59.278Z,20.14
2023-05-24T09:25:29.200Z,20.20
2023-05-24T09:27:56.470Z,20.21
2023-05-24T09:30:23.865Z,20.12
2023-05-24T09:33:01.331Z,20.11
2023-05-24T09:35:29.272Z,20.15
2023-05-24T09:38:00.157Z,20.03
2023-05-24T09:40:29.525Z,19.92
2023-05-24T09:43:10.388Z,20.25
2023-05-24T09:45:47.060Z,20.59
2023-05-24T09:48:17.330Z,20.91
2023-05-24T09:50:47.635Z,21.22
2023-05-24T09:53:18.182Z,20.75
2023-05-24T09:55:46.368Z,20.60
2023-05-24T09:58:14.909Z,20.56
2023-05-24T10:00:43.039Z,20.82
2023-05-24T10:03:12.803Z,21.18
2023-05-24T10:05:45.522Z,20.80
2023-05-24T10:08:14.682Z,20.95
2023-05-24T10:10:42.624Z,20.64
2023-05-24T10:13:10.376Z,20.61
2023-05-24T10:15:38.364Z,20.95
2023-05-24T10:18:10.623Z,20.97
2023-05-24T10:20:41.651Z,20.70
2023-05-24T10:23:10.401Z,20.70
2023-05-24T10:25:42.195Z,20.86
2023-05-24T10:28:12.502Z,21.07
2023-05-24T10:30:44.400Z,21.18
2023-05-24T10:33:13.664Z,21.38
2023-05-24T10:35:43.139Z,21.31
2023-05-24T10:38:10.872Z,21.25
2023-05-24T10:40:42.949Z,21.13
2023-05-24T10:43:10.406Z,21.17
2023-05-24T10:45:39.079Z,21.39
2023-05-24T10:48:13.387Z,21.20
2023-05-24T10:50:44.234Z,21.35
2023-05-24T10:53:11.806Z,21.61
2023-05-24T10:55:59.147Z,21.95
2023-05-24T10:58:32.902Z,21.77
2023-05-24T11:01:00.295Z,21.79
2023-05-24T11:03:33.341Z,21.61
2023-05-24T11:06:00.536Z,21.86
2023-05-24T11:08:35.336Z,21.72
2023-05-24T11:11:24.471Z,21.62
2023-05-24T11:13:57.584Z,21.77
2023-05-24T11:16:38.847Z,21.94
2023-05-24T11:19:23.159Z,22.18
2023-05-24T11:21:53.235Z,22.10
2023-05-24T11:24:25.411Z,22.10
2023-05-24T11:26:57.068Z,22.24
2023-05-24T11:29:26.074Z,22.25
2023-05-24T11:31:55.323Z,22.20
2023-05-24T11:34:23.854Z,22.20
2023-05-24T11:36:53.284Z,22.06
2023-05-24T11:39:20.630Z,21.91
2023-05-24T11:41:47.785Z,22.30
2023-05-24T11:44:19.661Z,22.27
2023-05-24T11:46:47.269Z,22.73
2023-05-24T11:49:17.845Z,22.86
2023-05-24T11:51:45.048Z,22.89
2023-05-24T11:54:12.253Z,22.64
2023-05-24T11:56:40.169Z,22.68
2023-05-24T11:59:16.914Z,22.35
2023-05-24T12:01:44.666Z,22.61
2023-05-24T12:04:12.920Z,22.74
2023-05-24T12:06:44.530Z,22.96
2023-05-24T12:09:16.775Z,22.77
2023-05-24T12:11:47.314Z,23.18
2023-05-24T12:14:16.101Z,23.17
2023-05-24T12:16:44.246Z,23.08
2023-05-24T12:19:32.548Z,23.12
2023-05-24T12:22:05.423Z,23.16
2023-05-24T12:24:32.743Z,23.08
2023-05-24T12:27:08.216Z,23.37
2023-05-24T12:29:38.682Z,23.33
2023-05-24T12:32:11.825Z,22.97
2023-05-24T12:34:43.204Z,22.87
2023-05-24T12:37:12.383Z,23.25
2023-05-24T12:39:42.601Z,23.43
2023-05-24T12:42:13.282Z,23.33
2023-05-24T12:44:40.880Z,23.33
2023-05-24T12:47:09.215Z,23.30
2023-05-24T12:49:37.272Z,23.41
2023-05-24T12:52:06.625Z,23.40
2023-05-24T12:54:34.086Z,23.42
2023-05-24T12:57:02.752Z,23.38
2023-05-24T12:59:30.852Z,23.16
2023-05-24T13:01:58.217Z,23.45
2023-05-24T13:04:30.566Z,23.67
2023-05-24T13:06:57.957Z,23.50
2023-05-24T13:09:26.037Z,23.47
2023-05-24T13:11:54.199Z,23.46
2023-05-24T13:14:22.012Z,23.26
2023-05-24T13:16:49.325Z,23.52
2023-05-24T13:19:17.453Z,23.21
2023-05-24T13:21:45.319Z,23.06
2023-05-24T13:24:16.472Z,23.30
2023-05-24T13:31:42.547Z,23.32
2023-05-24T13:34:11.176Z,23.27
2023-05-24T13:36:39.286Z,23.38
2023-05-24T13:41:39.096Z,23.60
2023-05-24T13:44:07.210Z,23.38
2023-05-24T13:46:36.363Z,23.35
2023-05-24T13:49:04.556Z,22.91
2023-05-24T13:51:31.683Z,23.42
2023-05-24T13:53:59.636Z,23.64
2023-05-24T13:56:32.655Z,23.77
2023-05-24T13:59:02.461Z,23.81
2023-05-24T14:01:33.131Z,23.74
2023-05-24T14:04:02.256Z,23.76
2023-05-24T14:06:29.410Z,24.00
2023-05-24T14:08:56.899Z,24.17
2023-05-24T14:11:25.470Z,24.60
2023-05-24T14:16:23.446Z,24.38
2023-05-24T14:18:51.723Z,24.15
2023-05-24T14:21:19.496Z,24.02
2023-05-24T14:23:46.595Z,23.85
2023-05-24T14:26:13.981Z,23.52
2023-05-24T14:28:41.451Z,23.87
2023-05-24T14:31:08.530Z,24.18
2023-05-24T14:33:36.158Z,24.48
2023-05-24T14:36:03.206Z,24.80
2023-05-24T14:38:30.393Z,24.44
2023-05-24T14:40:58.790Z,24.12
2023-05-24T14:43:26.184Z,24.25
2023-05-24T14:45:53.296Z,23.88
2023-05-24T14:48:20.686Z,23.30
2023-05-24T14:50:47.774Z,23.73
2023-05-24T14:53:15.094Z,22.93
2023-05-24T14:55:43.763Z,22.96
2023-05-24T14:58:12.421Z,23.31
2023-05-24T15:00:40.778Z,23.32
2023-05-24T15:03:09.041Z,23.84
2023-05-24T15:05:36.692Z,23.67
2023-05-24T15:08:05.786Z,23.89
2023-05-24T15:10:34.301Z,23.65
2023-05-24T15:13:03.708Z,23.44
2023-05-24T15:15:31.389Z,23.78
2023-05-24T15:17:59.990Z,23.72
2023-05-24T15:20:27.605Z,24.06
2023-05-24T15:22:55.021Z,24.11
2023-05-24T15:25:22.679Z,24.48
2023-05-24T15:27:49.920Z,24.45
2023-05-24T15:30:19.159Z,24.65
2023-05-24T15:32:47.582Z,24.38
2023-05-24T15:35:14.820Z,24.66
2023-05-24T15:37:42.702Z,24.39
2023-05-24T15:40:11.204Z,24.52
2023-05-24T15:42:39.368Z,24.62
2023-05-24T15:45:07.198Z,24.44
2023-05-24T15:47:40.113Z,24.84
2023-05-24T15:50:08.354Z,24.85
2023-05-24T15:52:36.118Z,24.74
2023-05-24T15:55:03.569Z,24.73
2023-05-24T15:57:31.320Z,24.87
2023-05-24T15:59:58.664Z,25.15
2023-05-24T16:02:25.950Z,24.86
2023-05-24T16:04:54.314Z,24.92
2023-05-24T16:07:21.402Z,25.10
2023-05-24T16:09:50.795Z,24.80
2023-05-24T16:12:18.564Z,25.05
2023-05-24T16:14:46.172Z,25.18
2023-05-24T16:17:13.474Z,25.36
2023-05-24T16:19:41.769Z,24.83
2023-05-24T16:22:08.940Z,25.06
2023-05-24T16:24:36.035Z,25.47
2023-05-24T16:27:03.569Z,25.69
2023-05-24T16:29:30.976Z,25.81
2023-05-24T16:31:58.395Z,25.69
2023-05-24T16:34:25.819Z,25.36
2023-05-24T16:36:52.961Z,25.34
2023-05-24T16:39:20.060Z,25.05
2023-05-24T16:41:47.673Z,25.19
2023-05-24T16:44:18.187Z,25.88
2023-05-24T16:46:45.832Z,25.94
2023-05-24T16:49:13.362Z,25.72
2023-05-24T16:51:40.554Z,25.44
2023-05-24T16:54:08.857Z,25.06
2023-05-24T16:56:37.104Z,25.20
2023-05-24T16:59:04.540Z,25.58
2023-05-24T17:01:31.988Z,25.47
2023-05-24T17:03:59.467Z,25.99
2023-05-24T17:06:26.653Z,25.44
2023-05-24T17:08:53.754Z,25.28
2023-05-24T17:11:21.171Z,25.82
2023-05-24T17:13:48.379Z,26.02
2023-05-24T17:16:15.520Z,25.68
2023-05-24T17:18:42.945Z,25.41
2023-05-24T17:21:10.935Z,24.82
2023-05-24T17:23:38.255Z,23.74
2023-05-24T17:28:36.356Z,22.08
2023-05-24T17:31:04.012Z,21.45
2023-05-24T17:33:32.121Z,21.25
2023-05-24T17:36:02.790Z,21.25
2023-05-24T17:38:33.189Z,20.99
2023-05-24T17:41:00.717Z,20.66
2023-05-24T17:43:34.406Z,20.38
2023-05-24T17:46:08.676Z,20.34
2023-05-24T17:48:36.896Z,20.19
2023-05-24T17:51:06.439Z,20.01
2023-05-24T17:53:34.960Z,20.06
2023-05-24T17:56:03.200Z,19.97
2023-05-24T17:58:32.831Z,19.86
2023-05-24T18:01:00.196Z,19.67
2023-05-24T18:03:27.698Z,19.48
2023-05-24T18:05:54.905Z,19.47
2023-05-24T18:08:22.487Z,19.43
2023-05-24T18:10:49.917Z,19.24
2023-05-24T18:13:17.191Z,19.09
2023-05-24T18:15:44.614Z,18.86
2023-05-24T18:18:12.339Z,18.69
2023-05-24T18:20:39.774Z,18.55
2023-05-24T18:23:06.967Z,18.52
2023-05-24T18:25:34.706Z,18.31
2023-05-24T18:28:02.387Z,18.16
2023-05-24T18:30:30.078Z,18.09
2023-05-24T18:33:06.892Z,17.94
2023-05-24T18:35:35.742Z,17.85
2023-05-24T18:38:04.284Z,17.69
2023-05-24T18:40:31.548Z,17.57
2023-05-24T18:42:58.826Z,17.50
2023-05-24T18:45:26.438Z,17.45
2023-05-24T18:47:54.250Z,17.44
2023-05-24T18:50:23.390Z,17.39
2023-05-24T18:52:51.072Z,17.33
2023-05-24T18:55:18.240Z,17.20
2023-05-24T18:57:45.511Z,17.17
2023-05-24T19:00:13.467Z,17.11
2023-05-24T19:02:40.901Z,17.08
2023-05-24T19:05:08.570Z,16.99
2023-05-24T19:07:36.362Z,16.88
2023-05-24T19:10:04.448Z,16.81
2023-05-24T19:12:31.731Z,16.79
2023-05-24T19:14:59.446Z,16.71
2023-05-24T19:17:26.894Z,16.65
2023-05-24T19:19:54.463Z,16.61
2023-05-24T19:22:21.877Z,16.60
2023-05-24T19:24:49.226Z,16.52
2023-05-24T19:27:16.394Z,16.45
2023-05-24T19:29:43.789Z,16.34
2023-05-24T19:32:11.669Z,16.28
2023-05-24T19:34:42.213Z,16.22
2023-05-24T19:37:09.981Z,16.19
2023-05-24T19:39:37.729Z,16.13
2023-05-24T19:42:05.007Z,16.06
2023-05-24T19:44:32.469Z,16.05
2023-05-24T19:46:59.781Z,16.04
2023-05-24T19:49:27.056Z,16.00
2023-05-24T19:51:54.492Z,15.93
2023-05-24T19:54:22.478Z,15.88
2023-05-24T19:56:51.762Z,15.86
2023-05-24T19:59:19.474Z,15.81
2023-05-24T20:01:46.668Z,15.76
2023-05-24T20:04:14.350Z,15.75
2023-05-24T20:06:41.653Z,15.67
2023-05-24T20:09:08.865Z,15.68
2023-05-24T20:11:36.312Z,15.67
2023-05-24T20:14:03.499Z,15.67
2023-05-24T20:16:31.368Z,15.61
2023-05-24T20:18:58.832Z,15.55
2023-05-24T20:21:26.327Z,15.52
2023-05-24T20:23:58.765Z,15.51
2023-05-24T20:26:26.592Z,15.47
2023-05-24T20:28:53.788Z,15.39
2023-05-24T20:31:20.918Z,15.32
2023-05-24T20:33:49.829Z,15.33
2023-05-24T20:36:18.483Z,15.32
2023-05-24T20:38:45.595Z,15.31
2023-05-24T20:41:12.953Z,15.31
2023-05-24T20:43:40.020Z,15.35
2023-05-24T20:46:07.200Z,15.32
2023-05-24T20:48:34.662Z,15.27
2023-05-24T20:51:01.818Z,15.20
2023-05-24T20:53:29.944Z,15.21
2023-05-24T20:55:57.357Z,15.21
2023-05-24T20:58:24.395Z,15.19
2023-05-24T21:00:51.762Z,15.12
2023-05-24T21:03:19.225Z,15.13
2023-05-24T21:05:46.403Z,15.14
2023-05-24T21:08:13.588Z,15.13
2023-05-24T21:10:41.110Z,15.14
2023-05-24T21:13:08.262Z,15.08
2023-05-24T21:15:36.575Z,15.13
2023-05-24T21:18:04.536Z,15.07
2023-05-24T21:20:31.735Z,15.04
2023-05-24T21:22:58.761Z,15.11
2023-05-24T21:25:26.121Z,14.99
2023-05-24T21:27:53.139Z,15.00
2023-05-24T21:30:20.577Z,14.96
2023-05-24T21:32:47.925Z,14.92
2023-05-24T21:35:15.633Z,14.93
2023-05-24T21:37:43.342Z,14.86
2023-05-24T21:40:11.183Z,14.91
2023-05-24T21:42:38.273Z,14.89
2023-05-24T21:45:06.255Z,14.86
2023-05-24T21:47:33.685Z,14.82
2023-05-24T21:50:00.961Z,14.80
2023-05-24T21:52:28.028Z,14.80
2023-05-24T21:54:55.546Z,14.80
2023-05-24T21:57:23.858Z,14.79
2023-05-24T21:59:52.952Z,14.80
2023-05-24T22:02:21.626Z,14.77
2023-05-24T22:04:49.159Z,14.75
2023-05-24T22:07:16.262Z,14.72
2023-05-24T22:09:43.268Z,14.66
2023-05-24T22:12:10.836Z,14.63
2023-05-24T22:14:39.970Z,14.64
2023-05-24T22:17:07.109Z,14.59
2023-05-24T22:22:04.726Z,14.58
2023-05-24T22:24:31.858Z,14.57
2023-05-24T22:27:01.119Z,14.50
2023-05-24T22:29:28.437Z,14.47
2023-05-24T22:31:55.746Z,14.48
2023-05-24T22:34:29.314Z,14.46
2023-05-24T22:36:57.672Z,14.43
2023-05-24T22:39:25.837Z,14.37
2023-05-24T22:41:53.293Z,14.31
2023-05-24T22:44:20.444Z,14.30
2023-05-24T22:46:49.771Z,14.32
2023-05-24T22:49:20.058Z,14.32
2023-05-24T22:51:48.698Z,14.28
2023-05-24T22:54:16.341Z,14.19
2023-05-24T22:56:43.974Z,14.16
2023-05-24T22:59:11.695Z,14.14
2023-05-24T23:01:39.042Z,14.06
2023-05-24T23:04:19.789Z,14.07
2023-05-24T23:06:49.396Z,14.05
2023-05-24T23:09:17.705Z,14.01
2023-05-24T23:11:46.123Z,13.99
2023-05-24T23:14:14.160Z,14.02
2023-05-24T23:16:45.215Z,13.95
2023-05-24T23:19:18.496Z,13.94
2023-05-24T23:21:46.506Z,13.98
2023-05-24T23:24:15.964Z,13.94
2023-05-24T23:26:43.593Z,13.98
2023-05-24T23:29:11.324Z,14.06
2023-05-24T23:31:38.551Z,14.13
2023-05-24T23:34:08.212Z,14.16
2023-05-24T23:36:36.529Z,14.22
2023-05-24T23:39:03.956Z,14.20
2023-05-24T23:41:31.028Z,14.26
2023-05-24T23:43:58.352Z,14.26
2023-05-24T23:46:25.426Z,14.31
2023-05-24T23:48:52.470Z,14.35
2023-05-24T23:51:20.345Z,14.34
2023-05-24T23:53:47.575Z,14.34
2023-05-24T23:56:14.774Z,14.34
2023-05-24T23:58:42.274Z,14.33
